Time;durP1;ratioP1;P1;durP2;ratioP2;P2;SDS_P1;SDS_P2;PMS_P1;PMS_P2;Temp;Humidity;BMP_temperature;BMP_pressure;BME280_temperature;BME280_humidity;BME280_pressure;Samples;Min_cycle;Max_cycle;Signal;HPM_P1;HPM_P2
2020/12/12 00:00:19;;;;;;;17.73;10.77;;;9.80;99.90;;;;;;4960683;29;20664;-87
2020/12/12 00:02:45;;;;;;;22.30;11.23;;;9.80;99.90;;;;;;4943105;29;20215;-87
2020/12/12 00:05:10;;;;;;;18.57;11.23;;;9.80;99.90;;;;;;4943137;29;20186;-84
2020/12/12 00:07:36;;;;;;;25.17;11.63;;;9.80;99.90;;;;;;4943133;29;20693;-87
2020/12/12 00:10:02;;;;;;;20.37;10.43;;;9.90;99.90;;;;;;4943037;29;20281;-88
2020/12/12 00:12:28;;;;;;;21.97;11.00;;;9.90;99.90;;;;;;4942706;29;20214;-87
2020/12/12 00:14:53;;;;;;;18.53;11.27;;;9.80;99.90;;;;;;4942917;29;20218;-84
2020/12/12 00:17:19;;;;;;;19.37;10.83;;;9.80;99.90;;;;;;4942547;29;20172;-86
2020/12/12 00:19:46;;;;;;;16.87;10.27;;;10.00;99.90;;;;;;4942780;29;20625;-87
2020/12/12 00:22:11;;;;;;;26.13;12.03;;;10.10;99.90;;;;;;4942721;29;20194;-87
2020/12/12 00:24:38;;;;;;;26.47;11.47;;;10.20;99.90;;;;;;4942627;29;20552;-87
2020/12/12 00:27:03;;;;;;;19.73;11.27;;;10.10;99.90;;;;;;4959809;29;20180;-87
2020/12/12 00:29:29;;;;;;;17.07;11.33;;;10.10;99.90;;;;;;4941788;29;20191;-85
2020/12/12 00:31:57;;;;;;;18.77;10.20;;;10.00;99.90;;;;;;4942596;29;20537;-86
2020/12/12 00:34:25;;;;;;;19.10;11.23;;;9.80;99.90;;;;;;4942188;29;20302;-87
2020/12/12 00:36:51;;;;;;;20.23;10.47;;;9.80;99.90;;;;;;4942604;29;20186;-87
2020/12/12 00:39:18;;;;;;;24.77;11.17;;;9.90;99.90;;;;;;4942186;29;20179;-85
2020/12/12 00:41:44;;;;;;;20.03;11.13;;;10.20;99.90;;;;;;4942156;29;20183;-85
2020/12/12 00:44:11;;;;;;;17.43;11.30;;;10.20;99.90;;;;;;4958754;29;20180;-86
2020/12/12 00:46:38;;;;;;;23.53;11.37;;;10.10;99.90;;;;;;4959279;29;20559;-87
2020/12/12 00:49:06;;;;;;;18.27;10.80;;;10.10;99.90;;;;;;4959066;28;20219;-87
2020/12/12 00:51:31;;;;;;;21.13;12.43;;;10.30;99.90;;;;;;4942153;29;20194;-84
2020/12/12 00:53:58;;;;;;;21.10;11.03;;;10.30;99.90;;;;;;4959131;29;20216;-86
2020/12/12 00:56:24;;;;;;;22.27;12.30;;;10.20;99.90;;;;;;4958993;29;20185;-86
2020/12/12 00:58:50;;;;;;;25.33;12.13;;;10.20;99.90;;;;;;4941592;29;20206;-87
2020/12/12 01:01:17;;;;;;;23.57;11.90;;;10.20;99.90;;;;;;4941823;29;20237;-87
2020/12/12 01:03:43;;;;;;;31.13;12.20;;;10.20;99.90;;;;;;4941691;29;20274;-85
2020/12/12 01:06:10;;;;;;;29.77;13.60;;;10.20;99.90;;;;;;4941742;29;20234;-85
2020/12/12 01:08:36;;;;;;;33.33;14.10;;;10.10;99.90;;;;;;4958305;28;20191;-85
2020/12/12 01:11:02;;;;;;;26.30;13.70;;;10.10;99.90;;;;;;4941638;29;20179;-84
2020/12/12 01:13:28;;;;;;;28.30;13.57;;;10.10;99.90;;;;;;4941551;29;20738;-85
2020/12/12 01:15:54;;;;;;;25.93;13.87;;;10.00;99.90;;;;;;4940789;29;20205;-83
2020/12/12 01:18:19;;;;;;;38.53;14.87;;;10.00;99.90;;;;;;4940849;29;20181;-84
2020/12/12 01:20:45;;;;;;;30.77;14.07;;;10.00;99.90;;;;;;4940724;29;20654;-84
2020/12/12 01:23:10;;;;;;;35.83;14.77;;;10.00;99.90;;;;;;4940971;29;20182;-86
2020/12/12 01:25:37;;;;;;;40.67;14.97;;;10.00;99.90;;;;;;4940386;29;20326;-84
2020/12/12 01:28:04;;;;;;;29.27;14.13;;;10.00;99.90;;;;;;4940475;29;20180;-85
2020/12/12 01:30:30;;;;;;;34.67;14.10;;;10.00;99.90;;;;;;4940237;29;20178;-84
2020/12/12 01:32:57;;;;;;;36.43;14.00;;;10.00;99.90;;;;;;4940618;29;20254;-85
2020/12/12 01:35:23;;;;;;;30.87;13.70;;;10.10;99.90;;;;;;4940282;29;20179;-88
2020/12/12 01:37:48;;;;;;;29.17;14.03;;;10.00;99.90;;;;;;4940433;29;20586;-85
2020/12/12 01:40:14;;;;;;;36.50;15.20;;;9.90;99.90;;;;;;4939895;29;20203;-85
2020/12/12 01:42:39;;;;;;;36.40;14.53;;;9.90;99.90;;;;;;4940285;29;20188;-82
2020/12/12 01:45:06;;;;;;;37.27;14.33;;;9.90;99.90;;;;;;4940193;29;20256;-85
2020/12/12 01:47:32;;;;;;;27.90;14.10;;;9.80;99.90;;;;;;4940058;29;20184;-85
2020/12/12 01:49:59;;;;;;;36.37;14.97;;;9.80;99.90;;;;;;4939972;29;20195;-85
2020/12/12 01:52:26;;;;;;;34.70;14.20;;;9.90;99.90;;;;;;4940174;29;20202;-84
2020/12/12 01:54:52;;;;;;;32.93;12.83;;;9.90;99.90;;;;;;4939871;29;20274;-85
2020/12/12 01:57:20;;;;;;;34.30;14.23;;;9.90;99.90;;;;;;4939824;29;20184;-83
2020/12/12 01:59:47;;;;;;;33.17;14.80;;;10.00;99.90;;;;;;4939992;29;20257;-82
2020/12/12 02:02:15;;;;;;;33.47;15.90;;;10.10;99.90;;;;;;4939748;29;20642;-83
2020/12/12 02:04:51;;;;;;;38.90;15.67;;;10.00;99.90;;;;;;4939620;29;20175;-82
2020/12/12 02:07:19;;;;;;;38.53;14.53;;;10.00;99.90;;;;;;4939713;29;20183;-85
2020/12/12 02:09:45;;;;;;;38.90;14.90;;;10.00;99.90;;;;;;4956426;29;20653;-84
2020/12/12 02:12:12;;;;;;;43.03;16.20;;;10.00;99.90;;;;;;4956574;29;20632;-85
2020/12/12 02:14:38;;;;;;;39.27;14.87;;;10.00;99.90;;;;;;4939495;29;20238;-83
2020/12/12 02:17:06;;;;;;;44.10;16.37;;;10.00;99.90;;;;;;4956805;29;20295;-86
2020/12/12 02:19:33;;;;;;;42.47;16.33;;;10.00;99.90;;;;;;4939300;28;20651;-85
2020/12/12 02:22:00;;;;;;;42.10;17.07;;;10.10;99.90;;;;;;4938955;29;20205;-86
2020/12/12 02:24:29;;;;;;;40.37;15.93;;;10.00;99.90;;;;;;4939374;29;20645;-85
2020/12/12 02:26:59;;;;;;;33.77;16.27;;;10.10;99.90;;;;;;4941984;29;20179;-85
2020/12/12 02:29:39;;;;;;;44.47;17.43;;;10.10;99.90;;;;;;4943527;29;20222;-83
2020/12/12 02:32:07;;;;;;;43.13;17.40;;;10.10;99.90;;;;;;4942902;29;20183;-86
2020/12/12 02:34:32;;;;;;;35.03;16.50;;;10.00;99.90;;;;;;4943433;29;20274;-86
2020/12/12 02:36:58;;;;;;;43.87;18.03;;;10.10;99.90;;;;;;4939972;29;20187;-86
2020/12/12 02:39:23;;;;;;;43.63;16.23;;;10.00;99.90;;;;;;4939086;29;20183;-87
2020/12/12 02:41:49;;;;;;;41.07;17.97;;;9.90;99.90;;;;;;4939519;29;20186;-87
2020/12/12 02:44:14;;;;;;;43.53;16.83;;;10.00;99.90;;;;;;4939650;29;20179;-86
2020/12/12 02:46:40;;;;;;;37.70;15.90;;;10.10;99.90;;;;;;4939324;29;20224;-86
2020/12/12 02:49:06;;;;;;;50.00;16.73;;;10.10;99.90;;;;;;4939073;29;20723;-86
2020/12/12 02:51:32;;;;;;;43.60;17.00;;;10.10;99.90;;;;;;4939068;29;20242;-86
2020/12/12 02:53:57;;;;;;;43.40;17.33;;;10.10;99.90;;;;;;4939054;29;20654;-85
2020/12/12 02:56:24;;;;;;;37.17;16.53;;;10.10;99.90;;;;;;4956019;29;20185;-85
2020/12/12 02:58:49;;;;;;;45.37;16.40;;;10.10;99.90;;;;;;4939247;29;20198;-84
2020/12/12 03:01:15;;;;;;;38.63;16.33;;;10.20;99.90;;;;;;4939042;29;20188;-85
2020/12/12 03:03:41;;;;;;;40.40;15.93;;;10.10;99.90;;;;;;4938885;29;20223;-85
2020/12/12 03:06:06;;;;;;;40.10;15.97;;;10.00;99.90;;;;;;4939277;29;20620;-88
2020/12/12 03:08:32;;;;;;;42.67;16.30;;;10.00;99.90;;;;;;4938777;29;20191;-87
2020/12/12 03:10:58;;;;;;;42.00;16.87;;;10.10;99.90;;;;;;4956209;29;20192;-88
2020/12/12 03:13:23;;;;;;;51.20;16.47;;;10.10;99.90;;;;;;4938866;29;20672;-85
2020/12/12 03:15:49;;;;;;;37.63;15.93;;;10.10;99.90;;;;;;4938778;29;20195;-86
2020/12/12 03:18:16;;;;;;;46.30;17.27;;;10.10;99.90;;;;;;4938744;29;20588;-88
2020/12/12 03:20:41;;;;;;;45.67;17.27;;;10.00;99.90;;;;;;4955880;29;20179;-87
2020/12/12 03:23:07;;;;;;;46.87;16.60;;;10.00;99.90;;;;;;4955753;29;20546;-87
2020/12/12 03:25:32;;;;;;;39.63;16.77;;;9.90;99.90;;;;;;4938758;29;20242;-87
2020/12/12 03:27:58;;;;;;;49.30;16.90;;;9.80;99.90;;;;;;4955844;29;20266;-84
2020/12/12 03:30:23;;;;;;;48.27;17.30;;;9.90;99.90;;;;;;4938608;29;20181;-84
2020/12/12 03:32:49;;;;;;;41.27;16.87;;;10.10;99.90;;;;;;4941420;29;20204;-84
2020/12/12 03:35:14;;;;;;;43.93;17.40;;;10.20;99.90;;;;;;4942699;29;20192;-84
2020/12/12 03:37:40;;;;;;;43.20;17.57;;;10.00;99.90;;;;;;4942347;29;20258;-86
2020/12/12 03:40:06;;;;;;;46.17;16.83;;;10.00;99.90;;;;;;4959792;29;20278;-86
2020/12/12 03:42:31;;;;;;;45.77;16.07;;;10.00;99.90;;;;;;4942695;29;20183;-87
2020/12/12 03:44:57;;;;;;;43.30;15.60;;;10.10;99.90;;;;;;4942769;29;20263;-87
2020/12/12 03:47:23;;;;;;;37.53;16.10;;;10.10;99.90;;;;;;4959360;29;20181;-86
2020/12/12 03:49:48;;;;;;;38.77;15.23;;;10.00;99.90;;;;;;4942368;29;20679;-87
2020/12/12 03:52:15;;;;;;;38.90;15.63;;;10.10;99.90;;;;;;4942205;29;20590;-87
2020/12/12 03:54:41;;;;;;;38.53;14.37;;;10.20;99.90;;;;;;4959316;29;20282;-86
2020/12/12 03:57:07;;;;;;;46.80;16.43;;;10.30;99.90;;;;;;4942146;29;20663;-86
2020/12/12 03:59:33;;;;;;;42.80;15.97;;;10.30;99.90;;;;;;4942019;29;20217;-83
2020/12/12 04:01:59;;;;;;;38.57;15.57;;;10.20;99.90;;;;;;4942305;29;20247;-84
2020/12/12 04:04:25;;;;;;;52.77;16.23;;;10.10;99.90;;;;;;4959088;29;20617;-83
2020/12/12 04:06:51;;;;;;;40.67;15.47;;;10.10;99.90;;;;;;4958729;29;20186;-85
2020/12/12 04:09:17;;;;;;;38.23;15.57;;;10.20;99.90;;;;;;4941825;29;20184;-86
2020/12/12 04:11:42;;;;;;;51.23;16.20;;;10.10;99.90;;;;;;4941851;29;20186;-84
2020/12/12 04:14:08;;;;;;;42.60;16.30;;;10.10;99.90;;;;;;4941863;29;20215;-83
2020/12/12 04:16:34;;;;;;;51.50;16.00;;;10.10;99.90;;;;;;4958716;29;20247;-85
2020/12/12 04:18:59;;;;;;;51.17;15.93;;;10.30;99.90;;;;;;4958841;29;20179;-85
2020/12/12 04:21:25;;;;;;;37.63;14.63;;;10.40;99.90;;;;;;4941547;29;20178;-86
2020/12/12 04:23:51;;;;;;;44.73;15.70;;;10.30;99.90;;;;;;4941320;29;20188;-87
2020/12/12 04:26:17;;;;;;;37.43;14.83;;;10.20;99.90;;;;;;4941704;29;20244;-87
2020/12/12 04:28:42;;;;;;;43.27;15.53;;;10.20;99.90;;;;;;4941617;29;20211;-86
2020/12/12 04:31:09;;;;;;;44.23;15.60;;;10.20;99.90;;;;;;4941785;29;20636;-84
2020/12/12 04:33:35;;;;;;;48.73;16.60;;;10.30;99.90;;;;;;4941486;29;20706;-86
2020/12/12 04:36:01;;;;;;;52.03;16.70;;;10.30;99.90;;;;;;4941135;29;20176;-87
2020/12/12 04:38:29;;;;;;;46.27;15.43;;;10.30;99.90;;;;;;4941458;29;20543;-86
2020/12/12 04:40:57;;;;;;;46.37;17.60;;;10.20;99.90;;;;;;4941472;29;20172;-86
2020/12/12 04:43:25;;;;;;;49.13;16.97;;;10.30;99.90;;;;;;4940481;29;20199;-86
2020/12/12 04:45:52;;;;;;;42.43;16.07;;;10.20;99.90;;;;;;4941266;29;20182;-86
2020/12/12 04:48:17;;;;;;;50.13;16.17;;;10.10;99.90;;;;;;4941247;29;20213;-86
2020/12/12 04:50:43;;;;;;;40.33;17.33;;;10.10;99.90;;;;;;4958135;29;20182;-84
2020/12/12 04:53:17;;;;;;;46.33;16.07;;;10.00;99.90;;;;;;4941387;29;20689;-84
2020/12/12 04:55:49;;;;;;;47.77;16.03;;;10.10;99.90;;;;;;4941328;29;20179;-86
2020/12/12 04:58:20;;;;;;;40.60;16.43;;;9.90;99.90;;;;;;4941020;29;20319;-85
2020/12/12 05:00:47;;;;;;;42.13;16.20;;;10.00;99.90;;;;;;4941030;29;20192;-84
2020/12/12 05:03:14;;;;;;;46.70;16.80;;;10.00;99.90;;;;;;4941049;29;20187;-83
2020/12/12 05:05:40;;;;;;;49.07;16.63;;;9.80;99.90;;;;;;4944720;29;20665;-83
2020/12/12 05:08:06;;;;;;;45.60;16.27;;;9.90;99.90;;;;;;4943403;29;20198;-85
2020/12/12 05:10:40;;;;;;;48.10;17.47;;;10.00;99.90;;;;;;4943158;29;20270;-86
2020/12/12 05:13:16;;;;;;;40.93;16.63;;;10.00;99.90;;;;;;4942354;29;20264;-86
2020/12/12 05:15:41;;;;;;;33.77;15.50;;;10.00;99.90;;;;;;4940723;29;20209;-87
2020/12/12 05:18:07;;;;;;;46.83;16.17;;;10.00;99.90;;;;;;4940840;29;20185;-86
2020/12/12 05:20:33;;;;;;;46.13;16.30;;;10.00;99.90;;;;;;4940718;29;20288;-86
2020/12/12 05:22:59;;;;;;;50.37;16.43;;;10.10;99.90;;;;;;4940848;29;20218;-86
2020/12/12 05:25:26;;;;;;;53.37;16.27;;;10.10;99.90;;;;;;4940688;29;20183;-87
2020/12/12 05:27:52;;;;;;;37.37;15.73;;;10.10;99.90;;;;;;4940923;29;20210;-86
2020/12/12 05:30:18;;;;;;;43.43;16.13;;;10.00;99.90;;;;;;4940658;29;20202;-87
2020/12/12 05:32:46;;;;;;;37.87;14.67;;;10.00;99.90;;;;;;4939887;29;20265;-87
2020/12/12 05:35:12;;;;;;;38.73;15.30;;;10.00;99.90;;;;;;4940603;29;20171;-87
2020/12/12 05:37:41;;;;;;;36.57;14.20;;;10.10;99.90;;;;;;4940322;29;20652;-87
2020/12/12 05:40:06;;;;;;;38.30;14.27;;;10.00;99.90;;;;;;4940213;29;20187;-87
2020/12/12 05:42:34;;;;;;;41.90;14.33;;;10.10;99.90;;;;;;4957444;29;20187;-86
2020/12/12 05:45:02;;;;;;;40.93;13.67;;;10.10;99.90;;;;;;4940546;29;20187;-83
2020/12/12 05:47:29;;;;;;;37.30;13.53;;;10.00;99.90;;;;;;4957198;29;20188;-83
2020/12/12 05:49:54;;;;;;;40.60;15.17;;;10.00;99.90;;;;;;4957092;28;20192;-83
2020/12/12 05:52:21;;;;;;;42.43;14.40;;;10.00;99.90;;;;;;4940417;29;20206;-85
2020/12/12 05:54:49;;;;;;;40.13;14.03;;;10.20;99.90;;;;;;4956997;28;20220;-86
2020/12/12 05:57:15;;;;;;;44.13;15.50;;;10.20;99.90;;;;;;4939990;29;20182;-86
2020/12/12 05:59:42;;;;;;;35.73;13.43;;;10.10;99.90;;;;;;4940030;29;20187;-87
2020/12/12 06:02:13;;;;;;;42.37;14.13;;;10.10;99.90;;;;;;4939972;29;20175;-86
2020/12/12 06:04:49;;;;;;;47.53;14.70;;;10.10;99.90;;;;;;4940134;29;20219;-86
2020/12/12 06:07:38;;;;;;;44.57;13.70;;;10.20;99.90;;;;;;4939648;29;20258;-86
2020/12/12 06:10:07;;;;;;;34.67;12.83;;;10.10;99.90;;;;;;4939843;29;20710;-86
2020/12/12 06:12:33;;;;;;;44.67;13.93;;;10.10;99.90;;;;;;4939801;29;20358;-87
2020/12/12 06:15:00;;;;;;;38.73;14.37;;;10.10;99.90;;;;;;4957017;29;20202;-86
2020/12/12 06:17:59;;;;;;;42.63;15.07;;;10.20;99.90;;;;;;4939439;29;20184;-86
2020/12/12 06:20:27;;;;;;;42.33;14.47;;;10.20;99.90;;;;;;4956823;29;20181;-86
2020/12/12 06:22:54;;;;;;;40.10;14.80;;;10.10;99.90;;;;;;4939713;29;20195;-86
2020/12/12 06:25:22;;;;;;;43.77;14.73;;;10.00;99.90;;;;;;4939593;29;20188;-87
2020/12/12 06:27:52;;;;;;;51.13;13.67;;;9.90;99.90;;;;;;4939604;29;20191;-87
2020/12/12 06:30:21;;;;;;;44.53;15.10;;;9.90;99.90;;;;;;4939303;29;20240;-87
2020/12/12 06:32:47;;;;;;;40.70;14.33;;;9.90;99.90;;;;;;4939405;29;20230;-86
2020/12/12 06:35:17;;;;;;;45.33;14.70;;;10.00;99.90;;;;;;4939567;29;20242;-87
2020/12/12 06:37:42;;;;;;;45.90;16.70;;;10.00;99.90;;;;;;4939500;29;20187;-84
2020/12/12 06:40:12;;;;;;;47.83;16.13;;;10.00;99.90;;;;;;4939431;29;20184;-84
2020/12/12 06:42:40;;;;;;;50.23;16.17;;;10.00;99.90;;;;;;4956217;29;20175;-85
2020/12/12 06:45:14;;;;;;;47.60;15.57;;;10.00;99.90;;;;;;4938933;29;20237;-84
2020/12/12 06:47:43;;;;;;;53.00;16.90;;;10.10;99.90;;;;;;4938879;29;20278;-85
2020/12/12 06:50:23;;;;;;;53.10;15.80;;;10.00;99.90;;;;;;4938949;29;20179;-84
2020/12/12 06:52:52;;;;;;;45.27;16.80;;;10.00;99.90;;;;;;4938658;29;20206;-84
2020/12/12 06:55:21;;;;;;;50.93;15.70;;;9.90;99.90;;;;;;4939233;29;20187;-86
2020/12/12 06:57:49;;;;;;;44.83;14.43;;;10.10;99.90;;;;;;4938991;29;20537;-86
2020/12/12 07:00:19;;;;;;;45.87;15.43;;;10.00;99.90;;;;;;4938906;29;20228;-84
2020/12/12 07:02:58;;;;;;;60.27;15.00;;;10.10;99.90;;;;;;4938536;29;20644;-85
2020/12/12 07:05:26;;;;;;;57.17;15.87;;;10.20;99.90;;;;;;4956619;29;20179;-85
2020/12/12 07:07:52;;;;;;;55.73;16.17;;;10.10;99.90;;;;;;4938165;29;20209;-83
2020/12/12 07:10:18;;;;;;;54.70;15.03;;;10.10;99.90;;;;;;4938763;29;20232;-85
2020/12/12 07:12:44;;;;;;;52.40;15.83;;;10.10;99.90;;;;;;4939197;29;20209;-85
2020/12/12 07:15:10;;;;;;;52.93;16.10;;;10.10;99.90;;;;;;4938477;29;20203;-85
2020/12/12 07:17:35;;;;;;;48.50;14.80;;;10.00;99.90;;;;;;4938645;29;20274;-86
2020/12/12 07:20:01;;;;;;;49.87;16.57;;;9.90;99.90;;;;;;4938770;29;20187;-85
2020/12/12 07:22:29;;;;;;;53.07;15.93;;;9.90;99.90;;;;;;4938617;29;20181;-85
2020/12/12 07:24:56;;;;;;;56.70;16.77;;;9.90;99.90;;;;;;4955583;29;20183;-82
2020/12/12 07:27:22;;;;;;;51.60;16.20;;;10.00;99.90;;;;;;4938219;29;20179;-84
2020/12/12 07:29:47;;;;;;;54.73;15.83;;;10.00;99.90;;;;;;4938384;29;20280;-85
2020/12/12 07:32:13;;;;;;;54.47;16.20;;;10.00;99.90;;;;;;4938627;29;20199;-84
2020/12/12 07:34:39;;;;;;;46.63;16.13;;;10.00;99.90;;;;;;4956529;29;20242;-82
2020/12/12 07:37:07;;;;;;;48.10;15.70;;;10.00;99.90;;;;;;4938606;29;20201;-84
2020/12/12 07:39:34;;;;;;;62.37;16.53;;;10.10;99.90;;;;;;4938953;29;20187;-85
2020/12/12 07:42:02;;;;;;;58.87;17.77;;;10.10;99.90;;;;;;4941432;29;20182;-82
2020/12/12 07:44:33;;;;;;;57.07;17.07;;;10.10;99.90;;;;;;4968768;29;20188;-85
2020/12/12 07:47:07;;;;;;;66.43;17.23;;;10.00;99.90;;;;;;4948771;29;20268;-84
2020/12/12 07:49:37;;;;;;;71.17;17.30;;;10.00;99.90;;;;;;4945455;29;20304;-86
2020/12/12 07:52:08;;;;;;;55.60;17.10;;;10.00;99.90;;;;;;4939144;29;20227;-85
2020/12/12 07:54:38;;;;;;;53.23;16.23;;;9.90;99.90;;;;;;4955627;29;20234;-85
2020/12/12 07:57:07;;;;;;;63.37;17.03;;;9.90;99.90;;;;;;4937918;29;20185;-85
2020/12/12 07:59:32;;;;;;;66.73;17.70;;;9.80;99.90;;;;;;4938527;29;20187;-86
2020/12/12 08:02:04;;;;;;;53.47;17.47;;;9.80;99.90;;;;;;4955572;29;20177;-86
2020/12/12 08:04:31;;;;;;;53.80;18.13;;;9.70;99.90;;;;;;4955668;29;20179;-86
2020/12/12 08:06:56;;;;;;;59.73;16.40;;;9.60;99.90;;;;;;4955512;29;20710;-86
2020/12/12 08:09:24;;;;;;;63.10;18.33;;;9.70;99.90;;;;;;4938211;29;20189;-86
2020/12/12 08:11:58;;;;;;;63.87;17.47;;;9.70;99.90;;;;;;4938225;29;20660;-86
2020/12/12 08:14:25;;;;;;;60.07;18.37;;;9.70;99.90;;;;;;4938193;29;20230;-85
2020/12/12 08:16:57;;;;;;;65.77;18.50;;;9.60;99.90;;;;;;4938321;29;20188;-86
2020/12/12 08:19:22;;;;;;;61.63;17.80;;;9.60;99.90;;;;;;4940270;29;20187;-86
2020/12/12 08:21:51;;;;;;;62.87;17.20;;;9.70;99.90;;;;;;4942123;29;20181;-86
2020/12/12 08:24:18;;;;;;;58.73;19.93;;;9.80;99.90;;;;;;4941818;29;20172;-86
2020/12/12 10:07:43;;;;;;;59.23;19.57;;;10.30;99.90;;;;;;5507362;23;20235;-84
2020/12/12 10:10:09;;;;;;;60.93;18.73;;;10.30;99.90;;;;;;4998011;28;20182;-87
2020/12/12 10:12:34;;;;;;;58.30;19.97;;;10.30;99.90;;;;;;5014392;28;20600;-82
2020/12/12 11:17:09;;;;;;;81.77;33.23;;;10.60;99.90;;;;;;5452788;23;20229;-87
2020/12/12 11:19:34;;;;;;;64.17;28.10;;;10.60;99.90;;;;;;4997347;28;20187;-89
2020/12/12 11:22:00;;;;;;;55.80;21.27;;;10.70;99.90;;;;;;4996968;28;20208;-91
2020/12/12 12:07:38;;;;;;;54.50;19.43;;;11.10;99.90;;;;;;4996567;28;20225;-92
2020/12/12 12:10:32;;;;;;;46.07;19.93;;;11.20;99.90;;;;;;4980831;28;20173;-92
2020/12/12 12:15:52;;;;;;;44.00;19.37;;;11.20;99.90;;;;;;4998378;28;20266;-92
2020/12/12 14:37:05;;;;;;;65.23;28.10;;;11.20;99.90;;;;;;4956783;26;20245;-84
2020/12/12 14:39:30;;;;;;;67.60;28.13;;;11.20;99.90;;;;;;4958181;28;20661;-85
2020/12/12 14:41:57;;;;;;;78.03;28.10;;;11.20;99.90;;;;;;4958079;28;20589;-84
2020/12/12 14:44:23;;;;;;;68.13;27.67;;;11.00;99.90;;;;;;4957977;28;20183;-86
2020/12/12 14:46:50;;;;;;;78.57;29.53;;;11.00;99.90;;;;;;4958216;28;20182;-85
2020/12/12 14:49:16;;;;;;;68.80;29.33;;;11.00;99.90;;;;;;4974878;28;20686;-86
2020/12/12 14:51:41;;;;;;;74.13;29.53;;;10.90;99.90;;;;;;4977406;28;20185;-83
2020/12/12 14:54:08;;;;;;;84.27;29.17;;;10.90;99.90;;;;;;4977140;28;20234;-83
2020/12/12 14:56:34;;;;;;;80.03;29.53;;;10.90;99.90;;;;;;4977257;28;20170;-82
2020/12/12 14:58:59;;;;;;;70.43;28.40;;;10.90;99.90;;;;;;4977293;28;20232;-82
2020/12/12 15:01:25;;;;;;;69.90;28.97;;;11.00;99.90;;;;;;4977244;28;20186;-85
2020/12/12 15:03:51;;;;;;;70.80;29.00;;;11.00;99.90;;;;;;4977561;28;20182;-84
2020/12/12 15:06:16;;;;;;;74.43;29.30;;;11.00;99.90;;;;;;4977074;28;20646;-83
2020/12/12 15:08:42;;;;;;;76.57;29.37;;;11.00;99.90;;;;;;4977232;28;20256;-85
2020/12/12 15:11:07;;;;;;;71.83;28.30;;;10.90;99.90;;;;;;4977291;28;20184;-82
2020/12/12 15:13:33;;;;;;;77.33;30.43;;;10.80;99.90;;;;;;4976730;28;20207;-83
2020/12/12 15:15:59;;;;;;;72.07;28.93;;;10.90;99.90;;;;;;4977349;28;20186;-84
2020/12/12 15:18:24;;;;;;;76.97;29.77;;;10.90;99.90;;;;;;4977142;28;20229;-86
2020/12/12 15:20:50;;;;;;;70.27;29.37;;;11.00;99.90;;;;;;4977217;28;20535;-85
2020/12/12 15:23:16;;;;;;;75.47;30.77;;;11.00;99.90;;;;;;4977199;28;20233;-86
2020/12/12 15:25:41;;;;;;;81.90;31.03;;;11.10;99.90;;;;;;4976863;28;20186;-85
2020/12/12 15:28:07;;;;;;;80.90;30.40;;;11.10;99.90;;;;;;4980334;28;20185;-83
2020/12/12 15:30:35;;;;;;;68.73;30.27;;;11.00;99.90;;;;;;4983618;28;20181;-82
2020/12/12 15:33:02;;;;;;;82.77;31.43;;;11.00;99.90;;;;;;4983331;28;20181;-83
2020/12/12 15:35:27;;;;;;;76.90;30.43;;;11.00;99.90;;;;;;4983199;28;20197;-83
2020/12/12 15:37:53;;;;;;;78.40;30.50;;;11.00;99.90;;;;;;4983653;28;20182;-82
2020/12/12 15:40:19;;;;;;;72.30;30.23;;;11.00;99.90;;;;;;4986379;28;20182;-83
2020/12/12 15:42:44;;;;;;;79.63;30.60;;;11.10;99.90;;;;;;4987110;28;20600;-84
2020/12/12 15:45:10;;;;;;;78.10;30.40;;;11.00;99.90;;;;;;4986058;28;20188;-83
2020/12/12 15:47:39;;;;;;;77.57;30.63;;;11.00;99.90;;;;;;4983093;28;20201;-82
2020/12/12 15:50:06;;;;;;;74.87;29.67;;;11.00;99.90;;;;;;4983292;28;20176;-83
2020/12/12 15:52:32;;;;;;;75.37;30.80;;;11.10;99.90;;;;;;4982852;28;20196;-83
2020/12/12 15:54:57;;;;;;;79.70;30.97;;;11.10;99.90;;;;;;4983200;28;20306;-82
2020/12/12 15:57:23;;;;;;;77.13;30.10;;;11.10;99.90;;;;;;4982863;28;20232;-82
2020/12/12 15:59:49;;;;;;;64.30;28.37;;;11.10;99.90;;;;;;4982940;28;20193;-82
2020/12/12 16:02:14;;;;;;;70.10;29.80;;;11.20;99.90;;;;;;5000519;28;20641;-83
2020/12/12 16:04:40;;;;;;;74.40;29.63;;;11.20;99.90;;;;;;5000460;28;20186;-84
2020/12/12 16:07:05;;;;;;;72.07;29.17;;;11.10;99.90;;;;;;4983124;28;20272;-83
2020/12/12 16:09:31;;;;;;;71.00;30.30;;;11.20;99.90;;;;;;4982816;28;20536;-83
2020/12/12 16:11:57;;;;;;;77.27;28.40;;;11.00;99.90;;;;;;5000250;28;20649;-82
2020/12/12 16:14:22;;;;;;;72.10;27.97;;;10.90;99.90;;;;;;4982748;28;20253;-82
2020/12/12 16:16:48;;;;;;;75.00;29.87;;;10.90;99.90;;;;;;4983057;28;20182;-83
2020/12/12 16:19:15;;;;;;;69.57;28.10;;;10.90;99.90;;;;;;4982909;28;20185;-84
2020/12/12 16:21:47;;;;;;;73.10;28.57;;;10.90;99.90;;;;;;4983325;28;20577;-83
2020/12/12 16:24:13;;;;;;;74.13;29.13;;;11.00;99.90;;;;;;4983214;28;20694;-88
2020/12/12 16:26:42;;;;;;;65.07;26.03;;;11.00;99.90;;;;;;4983176;28;20178;-87
2020/12/12 16:29:10;;;;;;;67.23;28.30;;;10.90;99.90;;;;;;4983552;28;20638;-87
2020/12/12 16:31:37;;;;;;;70.00;27.43;;;10.90;99.90;;;;;;4983407;28;20188;-87
2020/12/12 16:34:05;;;;;;;63.33;25.90;;;11.00;99.90;;;;;;4983000;28;20208;-87
2020/12/12 16:36:41;;;;;;;60.83;25.30;;;10.90;99.90;;;;;;4983217;28;20201;-87
2020/12/12 16:39:19;;;;;;;60.77;26.20;;;10.90;99.90;;;;;;4980477;28;20265;-87
2020/12/12 16:41:46;;;;;;;61.73;24.40;;;11.00;99.90;;;;;;4980230;28;20185;-87
2020/12/12 16:44:12;;;;;;;56.80;24.93;;;10.90;99.90;;;;;;4980199;28;20172;-87
2020/12/12 16:46:44;;;;;;;52.37;24.23;;;10.80;99.90;;;;;;4980180;28;20202;-88
2020/12/12 16:49:10;;;;;;;54.37;24.33;;;10.80;99.90;;;;;;4978919;28;20210;-86
2020/12/12 16:51:36;;;;;;;58.97;23.90;;;10.80;99.90;;;;;;4979772;28;20173;-86
2020/12/12 16:54:03;;;;;;;51.57;22.00;;;10.80;99.90;;;;;;4978910;28;20607;-83
2020/12/12 16:56:46;;;;;;;56.30;24.50;;;10.80;99.90;;;;;;4979649;28;20212;-82
2020/12/12 16:59:16;;;;;;;49.97;22.67;;;10.70;99.90;;;;;;4979018;28;20278;-85
2020/12/12 17:01:44;;;;;;;62.73;21.93;;;10.60;99.90;;;;;;4979321;28;20174;-87
2020/12/12 17:04:18;;;;;;;51.23;22.03;;;10.50;99.90;;;;;;4979669;28;20178;-87
2020/12/12 17:06:46;;;;;;;52.83;22.17;;;10.40;99.90;;;;;;4979821;28;20194;-86
2020/12/12 17:09:15;;;;;;;50.97;21.13;;;10.30;99.90;;;;;;4979090;28;20182;-85
2020/12/12 17:11:43;;;;;;;54.87;22.47;;;10.40;99.90;;;;;;4979371;28;20167;-83
2020/12/12 17:42:19;;;;;;;43.70;22.30;;;10.30;99.90;;;;;;4977805;28;20216;-95
2020/12/12 17:44:47;;;;;;;49.27;23.20;;;10.30;99.90;;;;;;4959926;28;20612;-90
2020/12/12 17:47:14;;;;;;;51.27;22.80;;;10.30;99.90;;;;;;4963161;28;20199;-92
2020/12/12 17:49:41;;;;;;;50.40;22.33;;;10.30;99.90;;;;;;4979677;28;20185;-92
2020/12/12 17:52:11;;;;;;;49.47;22.53;;;10.20;99.90;;;;;;4979835;28;20188;-89
2020/12/12 17:54:38;;;;;;;44.67;21.67;;;10.20;99.90;;;;;;4979715;28;20218;-88
2020/12/12 17:57:04;;;;;;;39.30;21.63;;;10.20;99.90;;;;;;4979954;28;20180;-90
2020/12/12 17:59:30;;;;;;;41.70;20.37;;;10.30;99.90;;;;;;4980717;28;20528;-91
2020/12/12 18:01:56;;;;;;;45.10;21.50;;;10.20;99.90;;;;;;4982484;28;20178;-95
2020/12/12 18:04:25;;;;;;;37.00;19.97;;;10.20;99.90;;;;;;4987650;28;20200;-91
2020/12/12 18:06:54;;;;;;;37.43;20.27;;;10.30;99.90;;;;;;4995022;28;20244;-93
2020/12/12 18:09:22;;;;;;;39.40;20.17;;;10.20;99.90;;;;;;4993984;28;20158;-93
2020/12/12 18:11:50;;;;;;;36.37;19.27;;;10.10;99.90;;;;;;4978861;28;20178;-92
2020/12/12 18:14:16;;;;;;;38.53;20.43;;;10.20;99.90;;;;;;4989929;28;20264;-93
2020/12/12 18:16:43;;;;;;;38.23;21.33;;;10.20;99.90;;;;;;4990161;28;20178;-91
2020/12/12 18:19:11;;;;;;;40.33;20.27;;;10.30;99.90;;;;;;4991720;28;20217;-95
2020/12/12 18:21:38;;;;;;;42.43;21.40;;;10.30;99.90;;;;;;4976607;28;20186;-89
2020/12/12 18:24:10;;;;;;;40.40;21.20;;;10.20;99.90;;;;;;4980380;28;20183;-91
2020/12/12 18:26:35;;;;;;;38.63;20.07;;;10.20;99.90;;;;;;4986568;28;20166;-94
2020/12/12 18:29:09;;;;;;;39.00;20.23;;;10.30;99.90;;;;;;5001807;28;20175;-91
2020/12/12 18:32:04;;;;;;;40.40;21.03;;;10.10;99.90;;;;;;5018264;28;20178;-96
2020/12/12 18:34:32;;;;;;;42.07;21.60;;;10.10;99.90;;;;;;4998869;28;20213;-95
2020/12/12 18:37:02;;;;;;;40.67;21.87;;;10.00;99.90;;;;;;4998462;28;20177;-95
2020/12/12 18:39:31;;;;;;;38.93;20.13;;;9.90;99.90;;;;;;4993759;28;20178;-96
2020/12/12 18:41:58;;;;;;;41.17;20.30;;;9.90;99.90;;;;;;4992007;28;20198;-96
2020/12/12 18:44:24;;;;;;;38.63;20.27;;;9.90;99.90;;;;;;4974570;28;20256;-92